createdAt,value
2018-03-25T00:00:10.956Z,18.60
2018-03-25T00:01:17.920Z,19.00
2018-03-25T00:02:24.655Z,19.30
2018-03-25T00:03:31.372Z,19.70
2018-03-25T00:04:38.120Z,21.80
2018-03-25T00:05:44.841Z,22.40
2018-03-25T00:06:51.614Z,21.50
2018-03-25T00:07:58.326Z,22.10
2018-03-25T00:09:05.088Z,20.00
2018-03-25T00:10:12.108Z,19.80
2018-03-25T00:11:18.838Z,18.90
2018-03-25T00:12:25.566Z,22.30
2018-03-25T00:13:32.489Z,26.50
2018-03-25T00:14:39.273Z,20.30
2018-03-25T00:15:46.005Z,22.10
2018-03-25T00:16:52.720Z,20.90
2018-03-25T00:17:59.536Z,22.70
2018-03-25T00:19:10.097Z,21.70
2018-03-25T00:20:13.341Z,21.40
2018-03-25T00:21:20.100Z,18.80
2018-03-25T00:22:26.835Z,22.00
2018-03-25T00:23:33.711Z,19.50
2018-03-25T00:24:40.459Z,19.80
2018-03-25T00:25:47.220Z,20.70
2018-03-25T00:26:53.980Z,17.70
2018-03-25T00:28:00.755Z,16.70
2018-03-25T00:29:07.525Z,18.40
2018-03-25T00:30:14.330Z,18.90
2018-03-25T00:31:21.183Z,22.70
2018-03-25T00:32:27.925Z,18.30
2018-03-25T00:33:34.697Z,19.40
2018-03-25T00:34:41.436Z,19.10
2018-03-25T00:35:48.229Z,19.00
2018-03-25T00:36:55.160Z,21.80
2018-03-25T00:38:02.111Z,18.80
2018-03-25T00:39:08.856Z,20.50
2018-03-25T00:40:15.768Z,14.90
2018-03-25T00:41:22.850Z,21.60
2018-03-25T00:42:29.615Z,22.60
2018-03-25T00:43:36.368Z,21.70
2018-03-25T00:44:43.142Z,19.40
2018-03-25T00:45:49.896Z,19.80
2018-03-25T00:46:56.749Z,18.40
2018-03-25T00:48:03.824Z,18.30
2018-03-25T00:49:10.560Z,18.80
2018-03-25T00:50:17.417Z,18.40
2018-03-25T00:51:24.367Z,20.50
2018-03-25T00:52:31.125Z,19.90
2018-03-25T00:53:38.033Z,21.80
2018-03-25T00:54:44.952Z,21.70
2018-03-25T00:55:51.700Z,17.40
2018-03-25T00:56:58.512Z,17.50
2018-03-25T00:58:05.238Z,16.20
2018-03-25T00:59:11.983Z,17.70
2018-03-25T01:00:18.740Z,19.40
2018-03-25T01:01:25.621Z,19.50
2018-03-25T01:02:32.392Z,17.30
2018-03-25T01:03:39.135Z,18.80
2018-03-25T01:04:45.909Z,20.60
2018-03-25T01:05:52.664Z,18.30
2018-03-25T01:06:59.416Z,19.90
2018-03-25T01:08:06.193Z,21.50
2018-03-25T01:09:12.944Z,17.20
2018-03-25T01:10:19.736Z,18.00
2018-03-25T01:11:26.503Z,18.20
2018-03-25T01:12:33.288Z,18.00
2018-03-25T01:13:40.020Z,19.60
2018-03-25T01:14:46.853Z,20.00
2018-03-25T01:15:53.592Z,22.50
2018-03-25T01:17:00.628Z,20.30
2018-03-25T01:18:07.411Z,17.40
2018-03-25T01:19:14.161Z,20.10
2018-03-25T01:20:21.045Z,18.50
2018-03-25T01:21:27.822Z,18.40
2018-03-25T01:22:34.692Z,17.00
2018-03-25T01:23:41.579Z,17.30
2018-03-25T01:24:48.336Z,16.80
2018-03-25T01:25:55.069Z,18.80
2018-03-25T01:27:01.936Z,14.20
2018-03-25T01:28:08.729Z,16.60
2018-03-25T01:29:15.456Z,14.70
2018-03-25T01:30:22.197Z,17.80
2018-03-25T01:31:29.010Z,18.50
2018-03-25T01:32:35.793Z,18.90
2018-03-25T01:33:42.526Z,16.40
2018-03-25T01:34:49.267Z,16.20
2018-03-25T01:35:56.123Z,14.50
2018-03-25T01:37:02.881Z,13.40
2018-03-25T01:38:09.653Z,16.90
2018-03-25T01:39:16.426Z,14.80
2018-03-25T01:40:23.204Z,17.00
2018-03-25T01:41:29.948Z,15.80
2018-03-25T01:42:37.013Z,17.70
2018-03-25T01:43:43.831Z,15.60
2018-03-25T01:44:50.586Z,16.80
2018-03-25T01:45:57.410Z,16.20
2018-03-25T01:47:04.149Z,14.80
2018-03-25T01:48:10.903Z,14.20
2018-03-25T01:49:17.639Z,17.40
2018-03-25T01:50:24.383Z,16.80
2018-03-25T01:51:31.170Z,13.80
2018-03-25T01:52:38.004Z,13.10
2018-03-25T01:53:44.760Z,17.50
2018-03-25T01:54:51.549Z,17.10
2018-03-25T01:55:58.265Z,14.90
2018-03-25T01:57:04.990Z,13.70
2018-03-25T01:58:11.732Z,16.80
2018-03-25T01:59:18.592Z,18.50
2018-03-25T02:00:25.321Z,15.00
2018-03-25T02:01:32.056Z,17.60
2018-03-25T02:02:38.828Z,17.40
2018-03-25T02:03:45.696Z,16.40
2018-03-25T02:04:52.459Z,13.80
2018-03-25T02:05:59.197Z,15.00
2018-03-25T02:07:05.950Z,13.60
2018-03-25T02:08:12.750Z,15.90
2018-03-25T02:09:19.517Z,15.70
2018-03-25T02:10:26.308Z,17.60
2018-03-25T02:11:33.049Z,18.40
2018-03-25T02:12:39.849Z,15.40
2018-03-25T02:13:46.588Z,17.20
2018-03-25T02:14:53.343Z,17.20
2018-03-25T02:16:00.124Z,19.10
2018-03-25T02:17:06.932Z,17.20
2018-03-25T02:18:13.748Z,16.30
2018-03-25T02:19:20.485Z,16.20
2018-03-25T02:20:27.301Z,16.20
2018-03-25T02:21:34.032Z,16.30
2018-03-25T02:22:40.763Z,18.00
2018-03-25T02:23:47.493Z,16.60
2018-03-25T02:24:54.291Z,17.30
2018-03-25T02:26:01.121Z,17.50
2018-03-25T02:27:07.962Z,15.90
2018-03-25T02:28:14.727Z,15.10
2018-03-25T02:29:21.524Z,18.40
2018-03-25T02:30:28.221Z,13.00
2018-03-25T02:31:35.016Z,18.40
2018-03-25T02:32:41.737Z,16.90
2018-03-25T02:33:48.604Z,15.40
2018-03-25T02:34:55.299Z,14.50
2018-03-25T02:36:02.015Z,17.50
2018-03-25T02:37:08.806Z,15.80
2018-03-25T02:38:15.508Z,17.30
2018-03-25T02:39:22.249Z,16.00
2018-03-25T02:40:28.999Z,19.10
2018-03-25T02:41:35.825Z,16.40
2018-03-25T02:42:42.594Z,19.00
2018-03-25T02:43:49.447Z,16.00
2018-03-25T02:44:56.162Z,17.90
2018-03-25T02:46:02.891Z,18.80
2018-03-25T02:47:09.634Z,17.30
2018-03-25T02:48:16.379Z,15.20
2018-03-25T02:49:23.172Z,14.30
2018-03-25T02:50:29.916Z,16.40
2018-03-25T02:51:36.705Z,15.90
2018-03-25T02:52:43.608Z,16.70
2018-03-25T02:53:50.345Z,15.10
2018-03-25T02:54:57.124Z,16.10
2018-03-25T02:56:03.855Z,16.00
2018-03-25T02:57:10.696Z,15.50
2018-03-25T02:58:17.487Z,18.00
2018-03-25T02:59:24.213Z,14.50
2018-03-25T03:00:30.944Z,17.00
2018-03-25T03:01:37.793Z,18.40
2018-03-25T03:02:44.547Z,17.20
2018-03-25T03:03:51.294Z,17.50
2018-03-25T03:04:58.032Z,13.10
2018-03-25T03:06:04.728Z,14.30
2018-03-25T03:07:11.555Z,15.80
2018-03-25T03:08:18.336Z,15.00
2018-03-25T03:09:25.079Z,13.70
2018-03-25T03:10:31.810Z,14.50
2018-03-25T03:11:38.650Z,15.80
2018-03-25T03:12:45.639Z,18.30
2018-03-25T03:13:52.474Z,16.60
2018-03-25T03:14:59.212Z,16.20
2018-03-25T03:16:05.967Z,15.20
2018-03-25T03:17:12.885Z,14.30
2018-03-25T03:18:19.652Z,14.30
2018-03-25T03:19:26.396Z,17.50
2018-03-25T03:20:33.109Z,15.00
2018-03-25T03:21:39.857Z,14.70
2018-03-25T03:22:46.647Z,12.80
2018-03-25T03:23:53.393Z,18.20
2018-03-25T03:25:00.133Z,15.90
2018-03-25T03:26:07.033Z,14.60
2018-03-25T03:27:13.807Z,16.90
2018-03-25T03:28:20.556Z,18.40
2018-03-25T03:29:27.305Z,17.90
2018-03-25T03:30:34.160Z,19.40
2018-03-25T03:31:40.894Z,14.60
2018-03-25T03:32:47.644Z,17.40
2018-03-25T03:33:54.481Z,16.70
2018-03-25T03:35:01.244Z,17.50
2018-03-25T03:36:07.954Z,14.90
2018-03-25T03:37:14.696Z,15.20
2018-03-25T03:38:21.421Z,16.40
2018-03-25T03:39:28.171Z,18.60
2018-03-25T03:40:34.985Z,17.80
2018-03-25T03:41:41.712Z,17.60
2018-03-25T03:42:48.461Z,17.60
2018-03-25T03:43:55.197Z,16.60
2018-03-25T03:45:01.934Z,14.40
2018-03-25T03:46:08.722Z,15.30
2018-03-25T03:47:15.492Z,19.90
2018-03-25T03:48:22.221Z,18.70
2018-03-25T03:49:28.944Z,17.00
2018-03-25T03:50:35.685Z,17.70
2018-03-25T03:51:42.473Z,16.40
2018-03-25T03:52:49.220Z,21.70
2018-03-25T03:53:55.957Z,19.50
2018-03-25T03:55:02.744Z,15.50
2018-03-25T03:56:09.565Z,19.40
2018-03-25T03:57:16.381Z,18.20
2018-03-25T03:58:23.205Z,17.30
2018-03-25T03:59:29.976Z,19.50
2018-03-25T04:00:36.760Z,20.70
2018-03-25T04:01:43.495Z,21.80
2018-03-25T04:02:50.237Z,21.90
2018-03-25T04:03:57.069Z,19.70
2018-03-25T04:05:03.796Z,18.40
2018-03-25T04:06:10.585Z,19.70
2018-03-25T04:07:17.318Z,21.40
2018-03-25T04:08:24.127Z,19.50
2018-03-25T04:09:30.844Z,21.10
2018-03-25T04:10:37.588Z,18.30
2018-03-25T04:11:44.326Z,17.50
2018-03-25T04:12:51.039Z,17.40
2018-03-25T04:13:57.848Z,19.10
2018-03-25T04:15:04.598Z,15.00
2018-03-25T04:16:11.359Z,18.10
2018-03-25T04:17:18.095Z,17.10
2018-03-25T04:18:24.940Z,17.30
2018-03-25T04:19:31.669Z,16.00
2018-03-25T04:20:38.428Z,15.30
2018-03-25T04:21:45.172Z,15.40
2018-03-25T04:22:52.035Z,16.70
2018-03-25T04:23:58.744Z,18.10
2018-03-25T04:25:05.489Z,19.20
2018-03-25T04:26:12.251Z,20.30
2018-03-25T04:27:19.110Z,16.30
2018-03-25T04:28:25.845Z,24.00
2018-03-25T04:29:32.585Z,18.00
2018-03-25T04:30:39.292Z,17.90
2018-03-25T04:31:46.039Z,17.40
2018-03-25T04:32:52.829Z,17.20
2018-03-25T04:33:59.644Z,17.90
2018-03-25T04:35:06.379Z,18.80
2018-03-25T04:36:13.116Z,16.20
2018-03-25T04:37:19.940Z,16.50
2018-03-25T04:38:26.705Z,14.30
2018-03-25T04:39:33.448Z,18.10
2018-03-25T04:40:40.181Z,20.10
2018-03-25T04:41:47.019Z,16.50
2018-03-25T04:42:53.802Z,16.90
2018-03-25T04:44:00.568Z,18.10
2018-03-25T04:45:07.317Z,14.60
2018-03-25T04:46:14.091Z,18.90
2018-03-25T04:47:20.850Z,17.20
2018-03-25T04:48:27.708Z,14.90
2018-03-25T04:49:34.560Z,14.70
2018-03-25T04:50:41.292Z,15.40
2018-03-25T04:51:48.096Z,15.50
2018-03-25T04:52:05.958Z,16.50
2018-03-25T04:53:12.723Z,14.10
2018-03-25T04:54:19.456Z,16.50
2018-03-25T04:55:26.171Z,16.60
2018-03-25T04:56:32.964Z,19.70
2018-03-25T04:57:39.963Z,18.60
2018-03-25T04:58:46.791Z,15.70
2018-03-25T04:59:53.540Z,16.00
2018-03-25T05:01:00.266Z,14.70
2018-03-25T05:02:07.037Z,17.30
2018-03-25T05:03:13.880Z,17.10
2018-03-25T05:04:20.596Z,17.30
2018-03-25T05:05:27.357Z,18.30
2018-03-25T05:06:34.080Z,15.30
2018-03-25T05:07:40.785Z,17.40
2018-03-25T05:08:47.596Z,15.10
2018-03-25T05:09:54.348Z,15.10
2018-03-25T05:11:01.089Z,16.80
2018-03-25T05:12:07.840Z,15.50
2018-03-25T05:13:14.713Z,15.50
2018-03-25T05:14:21.456Z,18.20
2018-03-25T05:15:28.181Z,19.90
2018-03-25T05:16:34.925Z,17.00
2018-03-25T05:17:41.646Z,18.20
2018-03-25T05:18:48.473Z,19.50
2018-03-25T05:19:55.233Z,18.10
2018-03-25T05:21:02.017Z,18.90
2018-03-25T05:22:08.892Z,17.00
2018-03-25T05:23:15.627Z,17.00
2018-03-25T05:24:22.375Z,16.20
2018-03-25T05:25:29.256Z,16.60
2018-03-25T05:26:36.020Z,16.00
2018-03-25T05:27:42.756Z,19.80
2018-03-25T05:28:49.556Z,19.40
2018-03-25T05:29:56.309Z,16.60
2018-03-25T05:31:03.110Z,21.30
2018-03-25T05:32:09.868Z,20.90
2018-03-25T05:33:16.624Z,16.60
2018-03-25T05:34:23.384Z,18.70
2018-03-25T05:35:30.307Z,19.70
2018-03-25T05:36:37.049Z,19.70
2018-03-25T05:37:43.800Z,17.30
2018-03-25T05:38:50.562Z,22.30
2018-03-25T05:39:57.310Z,23.70
2018-03-25T05:41:04.037Z,24.90
2018-03-25T05:42:10.745Z,26.20
2018-03-25T05:43:17.506Z,19.00
2018-03-25T05:44:24.278Z,22.60
2018-03-25T05:45:31.100Z,22.20
2018-03-25T05:46:37.806Z,22.50
2018-03-25T05:47:44.533Z,22.50
2018-03-25T05:48:51.288Z,21.60
2018-03-25T05:49:58.045Z,24.60
2018-03-25T05:51:04.857Z,20.70
2018-03-25T05:52:11.677Z,24.20
2018-03-25T05:53:18.416Z,22.30
2018-03-25T05:54:25.255Z,20.30
2018-03-25T05:55:32.030Z,19.60
2018-03-25T05:56:38.781Z,19.70
2018-03-25T05:57:45.564Z,21.90
2018-03-25T05:58:52.449Z,21.90
2018-03-25T05:59:59.412Z,20.20
2018-03-25T06:01:06.236Z,20.60
2018-03-25T06:02:13.216Z,19.70
2018-03-25T06:03:20.024Z,20.50
2018-03-25T06:04:26.739Z,24.50
2018-03-25T06:05:33.523Z,20.80
2018-03-25T06:06:40.273Z,21.90
2018-03-25T06:07:47.063Z,21.00
2018-03-25T06:08:53.795Z,20.90
2018-03-25T06:10:00.599Z,18.10
2018-03-25T06:11:07.445Z,18.50
2018-03-25T06:12:14.332Z,22.50
2018-03-25T06:13:21.083Z,26.30
2018-03-25T06:14:27.828Z,21.40
2018-03-25T06:15:34.564Z,23.80
2018-03-25T06:16:41.341Z,22.70
2018-03-25T06:17:48.079Z,19.70
2018-03-25T06:18:54.801Z,25.80
2018-03-25T06:20:01.569Z,26.20
2018-03-25T06:21:08.563Z,25.40
2018-03-25T06:22:15.290Z,32.10
2018-03-25T06:23:22.075Z,27.70
2018-03-25T06:24:28.891Z,27.30
2018-03-25T06:25:35.748Z,25.90
2018-03-25T06:26:42.512Z,24.80
2018-03-25T06:27:49.337Z,21.80
2018-03-25T06:28:56.095Z,26.20
2018-03-25T06:30:02.839Z,25.30
2018-03-25T06:31:09.686Z,26.30
2018-03-25T06:32:16.435Z,30.00
2018-03-25T06:33:23.155Z,38.80
2018-03-25T06:34:29.883Z,42.70
2018-03-25T06:35:36.640Z,27.30
2018-03-25T06:36:43.484Z,24.00
2018-03-25T06:37:50.225Z,25.10
2018-03-25T06:38:56.935Z,32.30
2018-03-25T06:40:03.972Z,42.60
2018-03-25T06:41:10.715Z,26.40
2018-03-25T06:42:17.480Z,21.70
2018-03-25T06:43:24.199Z,23.50
2018-03-25T06:44:30.920Z,23.30
2018-03-25T06:45:37.634Z,23.20
2018-03-25T06:46:44.426Z,24.70
2018-03-25T06:47:51.160Z,25.70
2018-03-25T06:48:57.884Z,23.20
2018-03-25T06:50:04.627Z,25.20
2018-03-25T06:51:11.483Z,22.00
2018-03-25T06:52:18.264Z,28.40
2018-03-25T06:53:25.039Z,25.30
2018-03-25T06:54:31.885Z,31.30
2018-03-25T06:55:38.628Z,26.60
2018-03-25T06:56:45.450Z,26.50
2018-03-25T06:57:52.245Z,28.30
2018-03-25T06:58:58.973Z,34.90
2018-03-25T07:00:05.696Z,26.70
2018-03-25T07:01:12.424Z,27.80
2018-03-25T07:02:19.192Z,25.60
2018-03-25T07:03:25.892Z,26.70
2018-03-25T07:04:32.664Z,27.60
2018-03-25T07:05:39.454Z,27.00
2018-03-25T07:06:46.202Z,27.20
2018-03-25T07:07:52.951Z,26.80
2018-03-25T07:08:59.712Z,30.50
2018-03-25T07:10:06.487Z,26.80
2018-03-25T07:11:13.247Z,29.20
2018-03-25T07:12:19.965Z,29.40
2018-03-25T07:13:26.767Z,27.00
2018-03-25T07:14:33.492Z,29.70
2018-03-25T07:15:40.339Z,30.20
2018-03-25T07:16:47.164Z,31.20
2018-03-25T07:17:53.928Z,27.80
2018-03-25T07:19:00.667Z,28.90
2018-03-25T07:20:07.520Z,26.10
2018-03-25T07:21:14.264Z,24.00
2018-03-25T07:22:20.984Z,26.40
2018-03-25T07:23:27.748Z,27.90
2018-03-25T07:24:34.477Z,27.00
2018-03-25T07:25:41.260Z,27.40
2018-03-25T07:26:48.011Z,26.10
2018-03-25T07:27:54.738Z,27.10
2018-03-25T07:29:01.473Z,26.40
2018-03-25T07:30:08.306Z,29.70
2018-03-25T07:31:15.080Z,24.70
2018-03-25T07:32:21.833Z,24.50
2018-03-25T07:33:28.592Z,26.70
2018-03-25T07:34:35.336Z,25.10
2018-03-25T07:35:42.044Z,26.00
2018-03-25T07:36:48.747Z,24.00
2018-03-25T07:37:55.512Z,28.40
2018-03-25T07:39:02.253Z,23.90
2018-03-25T07:40:09.142Z,24.20
2018-03-25T07:41:15.989Z,26.10
2018-03-25T07:42:22.698Z,28.80
2018-03-25T07:43:29.534Z,24.70
2018-03-25T07:44:36.275Z,51.70
2018-03-25T07:45:42.994Z,57.10
2018-03-25T07:46:49.732Z,42.70
2018-03-25T07:47:56.466Z,33.00
2018-03-25T07:49:03.268Z,31.40
2018-03-25T07:50:10.061Z,30.40
2018-03-25T07:51:16.768Z,31.10
2018-03-25T07:52:23.560Z,31.10
2018-03-25T07:53:30.365Z,29.50
2018-03-25T07:54:37.148Z,32.60
2018-03-25T07:55:43.916Z,29.50
2018-03-25T07:56:50.683Z,28.10
2018-03-25T07:57:57.472Z,26.60
2018-03-25T07:59:04.224Z,26.60
2018-03-25T08:00:11.032Z,27.50
2018-03-25T08:01:17.798Z,26.00
2018-03-25T08:02:24.600Z,103.60
2018-03-25T08:03:31.340Z,159.30
2018-03-25T08:04:38.161Z,27.80
2018-03-25T08:05:44.905Z,27.80
2018-03-25T08:06:51.973Z,24.30
2018-03-25T08:07:58.848Z,26.50
2018-03-25T08:09:05.567Z,23.10
2018-03-25T08:10:12.340Z,30.60
2018-03-25T08:11:19.088Z,26.20
2018-03-25T08:12:25.807Z,31.00
2018-03-25T08:13:32.621Z,25.10
2018-03-25T08:14:39.364Z,28.80
2018-03-25T08:15:46.103Z,27.90
2018-03-25T08:16:52.862Z,37.40
2018-03-25T08:17:59.704Z,31.90
2018-03-25T08:19:06.533Z,30.30
2018-03-25T08:20:13.375Z,29.30
2018-03-25T08:21:20.165Z,28.30
2018-03-25T08:22:26.887Z,30.10
2018-03-25T08:23:33.639Z,30.80
2018-03-25T08:24:40.440Z,29.40
2018-03-25T08:25:47.172Z,29.20
2018-03-25T08:26:53.953Z,30.10
2018-03-25T08:28:00.737Z,33.30
2018-03-25T08:29:07.552Z,31.50
2018-03-25T08:30:14.442Z,33.40
2018-03-25T08:31:21.209Z,30.10
2018-03-25T08:32:27.983Z,30.90
2018-03-25T08:33:34.713Z,32.00
2018-03-25T08:34:41.516Z,31.80
2018-03-25T08:35:48.267Z,30.10
2018-03-25T08:36:55.043Z,31.20
2018-03-25T08:38:01.788Z,33.60
2018-03-25T08:39:08.652Z,37.20
2018-03-25T08:40:15.405Z,46.30
2018-03-25T08:41:22.183Z,33.20
2018-03-25T08:42:28.921Z,36.00
2018-03-25T08:43:35.696Z,31.70
2018-03-25T08:44:42.512Z,36.60
2018-03-25T08:45:49.258Z,71.00
2018-03-25T08:46:56.004Z,63.30
2018-03-25T08:48:02.801Z,37.20
2018-03-25T08:49:09.592Z,39.30
2018-03-25T08:50:16.355Z,37.00
2018-03-25T08:51:23.104Z,32.90
2018-03-25T08:52:29.904Z,34.90
2018-03-25T08:53:36.791Z,38.50
2018-03-25T08:54:43.566Z,34.00
2018-03-25T08:55:50.458Z,37.10
2018-03-25T08:56:57.480Z,38.40
2018-03-25T08:58:04.236Z,37.20
2018-03-25T08:59:11.041Z,31.50
2018-03-25T09:00:17.891Z,29.80
2018-03-25T09:01:24.943Z,31.00
2018-03-25T09:02:31.699Z,27.50
2018-03-25T09:03:38.563Z,29.50
2018-03-25T09:04:45.316Z,26.70
2018-03-25T09:05:52.108Z,31.70
2018-03-25T09:06:58.948Z,30.80
2018-03-25T09:08:05.700Z,30.10
2018-03-25T09:09:12.536Z,30.40
2018-03-25T09:10:19.300Z,31.30
2018-03-25T09:11:26.077Z,34.90
2018-03-25T09:12:32.829Z,33.90
2018-03-25T09:13:39.615Z,34.50
2018-03-25T09:14:46.336Z,30.40
2018-03-25T09:15:53.065Z,31.60
2018-03-25T09:16:59.864Z,32.60
2018-03-25T09:18:06.721Z,35.50
2018-03-25T09:19:13.489Z,39.40
2018-03-25T09:20:20.283Z,36.20
2018-03-25T09:21:27.032Z,33.30
2018-03-25T09:22:33.835Z,29.40
2018-03-25T09:23:40.600Z,26.80
2018-03-25T09:24:47.359Z,27.50
2018-03-25T09:25:54.105Z,28.70
2018-03-25T09:27:00.972Z,31.10
2018-03-25T09:28:07.805Z,31.30
2018-03-25T09:29:14.546Z,30.10
2018-03-25T09:30:21.332Z,30.80
2018-03-25T09:31:28.072Z,35.60
2018-03-25T09:32:34.822Z,34.00
2018-03-25T09:33:41.572Z,31.80
2018-03-25T09:34:48.421Z,31.30
2018-03-25T09:35:55.223Z,31.30
2018-03-25T09:37:01.944Z,32.10
2018-03-25T09:38:08.853Z,30.60
2018-03-25T09:39:15.661Z,29.10
2018-03-25T09:40:22.420Z,31.90
2018-03-25T09:41:29.136Z,28.80
2018-03-25T09:42:35.931Z,31.40
2018-03-25T09:43:42.927Z,32.80
2018-03-25T09:44:49.747Z,37.10
2018-03-25T09:45:56.536Z,30.00
2018-03-25T09:47:03.297Z,31.40
2018-03-25T09:48:10.013Z,28.80
2018-03-25T09:49:16.848Z,31.30
2018-03-25T09:50:23.563Z,32.80
2018-03-25T09:51:30.327Z,30.00
2018-03-25T09:52:37.070Z,29.90
2018-03-25T09:53:43.940Z,33.00
2018-03-25T09:54:50.727Z,26.90
2018-03-25T09:55:57.460Z,30.60
2018-03-25T09:57:04.293Z,25.90
2018-03-25T09:58:11.017Z,30.80
2018-03-25T09:59:17.753Z,30.30
2018-03-25T10:00:24.580Z,26.30
2018-03-25T10:01:31.392Z,26.60
2018-03-25T10:02:38.446Z,31.60
2018-03-25T10:03:45.186Z,28.50
2018-03-25T10:04:52.037Z,31.50
2018-03-25T10:05:58.709Z,29.30
2018-03-25T10:07:05.431Z,28.60
2018-03-25T10:08:12.190Z,28.00
2018-03-25T10:09:18.956Z,27.50
2018-03-25T10:10:25.737Z,26.30
2018-03-25T10:11:32.527Z,28.50
2018-03-25T10:12:39.240Z,29.20
2018-03-25T10:13:46.053Z,28.10
2018-03-25T10:14:52.825Z,27.70
2018-03-25T10:15:59.652Z,29.60
2018-03-25T10:17:06.353Z,27.40
2018-03-25T10:18:13.092Z,23.80
2018-03-25T10:19:19.877Z,30.80
2018-03-25T10:20:26.625Z,31.70
2018-03-25T10:21:33.383Z,26.00
2018-03-25T10:22:40.140Z,29.50
2018-03-25T10:23:46.863Z,25.90
2018-03-25T10:24:53.668Z,25.30
2018-03-25T10:26:00.540Z,29.40
2018-03-25T10:27:07.439Z,29.00
2018-03-25T10:28:14.199Z,26.80
2018-03-25T10:29:21.015Z,26.60
2018-03-25T10:30:27.728Z,29.90
2018-03-25T10:31:34.585Z,28.40
2018-03-25T10:32:41.359Z,26.80
2018-03-25T10:33:48.090Z,25.60
2018-03-25T10:34:54.829Z,26.70
2018-03-25T10:36:01.627Z,27.60
2018-03-25T10:37:08.424Z,27.30
2018-03-25T10:38:15.184Z,27.30
2018-03-25T10:39:21.982Z,25.90
2018-03-25T10:40:28.792Z,26.80
2018-03-25T10:41:35.554Z,27.20
2018-03-25T10:42:42.269Z,29.90
2018-03-25T10:43:49.104Z,27.10
2018-03-25T10:44:55.856Z,26.50
2018-03-25T10:46:02.683Z,28.90
2018-03-25T10:47:09.455Z,27.20
2018-03-25T10:48:16.205Z,29.20
2018-03-25T10:49:22.954Z,31.50
2018-03-25T10:50:29.693Z,24.60
2018-03-25T10:51:36.548Z,26.40
2018-03-25T10:52:43.389Z,23.90
2018-03-25T10:53:50.287Z,29.50
2018-03-25T10:54:57.116Z,28.90
2018-03-25T10:56:03.874Z,28.80
2018-03-25T10:57:10.777Z,25.10
2018-03-25T10:58:17.544Z,29.40
2018-03-25T10:59:24.290Z,30.40
2018-03-25T11:00:31.040Z,26.50
2018-03-25T11:01:37.798Z,28.30
2018-03-25T11:02:44.546Z,27.90
2018-03-25T11:03:51.308Z,31.00
2018-03-25T11:04:58.032Z,28.00
2018-03-25T11:06:04.850Z,31.10
2018-03-25T11:07:11.604Z,30.30
2018-03-25T11:08:18.395Z,31.40
2018-03-25T11:09:25.161Z,25.50
2018-03-25T11:10:31.898Z,27.60
2018-03-25T11:11:38.658Z,27.10
2018-03-25T11:12:45.461Z,29.30
2018-03-25T11:13:52.195Z,26.80
2018-03-25T11:14:58.959Z,25.60
2018-03-25T11:16:05.732Z,27.20
2018-03-25T11:17:12.484Z,27.20
2018-03-25T11:18:19.280Z,27.00
2018-03-25T11:19:26.020Z,27.90
2018-03-25T11:20:32.788Z,26.00
2018-03-25T11:21:39.564Z,28.40
2018-03-25T11:22:45.348Z,27.50
2018-03-25T11:23:52.097Z,26.30
2018-03-25T11:24:58.841Z,27.20
2018-03-25T11:26:05.501Z,25.60
2018-03-25T11:27:12.209Z,25.20
2018-03-25T11:28:20.029Z,24.60
2018-03-25T11:29:26.806Z,29.70
2018-03-25T11:30:33.565Z,27.70
2018-03-25T11:31:40.337Z,29.20
2018-03-25T11:32:47.184Z,22.70
2018-03-25T11:33:54.006Z,26.70
2018-03-25T11:35:00.732Z,28.90
2018-03-25T11:36:07.662Z,29.00
2018-03-25T11:37:14.442Z,28.20
2018-03-25T11:38:21.180Z,26.50
2018-03-25T11:39:27.927Z,25.80
2018-03-25T11:40:34.709Z,28.00
2018-03-25T11:41:41.445Z,28.30
2018-03-25T11:42:48.209Z,25.50
2018-03-25T11:43:54.952Z,29.20
2018-03-25T11:45:01.782Z,25.40
2018-03-25T11:46:08.581Z,25.20
2018-03-25T11:47:15.339Z,27.20
2018-03-25T11:48:22.180Z,28.30
2018-03-25T11:49:28.946Z,28.50
2018-03-25T11:50:35.744Z,27.00
2018-03-25T11:51:42.428Z,26.30
2018-03-25T11:52:49.240Z,26.50
2018-03-25T11:53:56.019Z,25.90
2018-03-25T11:55:02.825Z,26.70
2018-03-25T11:56:09.636Z,28.10
2018-03-25T11:57:16.394Z,27.30
2018-03-25T11:58:23.161Z,26.40
2018-03-25T11:59:29.900Z,29.50
2018-03-25T12:00:36.692Z,28.90
2018-03-25T12:01:43.441Z,29.10
2018-03-25T12:02:50.168Z,28.60
2018-03-25T12:03:56.948Z,27.70
2018-03-25T12:05:03.747Z,27.40
2018-03-25T12:06:10.517Z,27.30
2018-03-25T12:07:17.303Z,29.50
2018-03-25T12:08:24.143Z,27.40
2018-03-25T12:09:30.893Z,26.50
2018-03-25T12:10:37.682Z,25.40
2018-03-25T12:11:44.533Z,23.80
2018-03-25T12:12:51.266Z,26.60
2018-03-25T12:13:58.025Z,25.50
2018-03-25T12:15:04.820Z,26.00
2018-03-25T12:16:11.603Z,27.40
2018-03-25T12:17:18.452Z,28.40
2018-03-25T12:18:25.211Z,27.50
2018-03-25T12:19:32.114Z,28.10
2018-03-25T12:20:38.983Z,27.70
2018-03-25T12:21:45.785Z,26.80
2018-03-25T12:22:52.548Z,27.70
2018-03-25T12:23:59.321Z,26.10
2018-03-25T12:25:06.180Z,31.20
2018-03-25T12:26:12.952Z,24.90
2018-03-25T12:27:19.741Z,27.60
2018-03-25T12:28:26.576Z,26.30
2018-03-25T12:29:33.330Z,28.10
2018-03-25T12:30:40.145Z,26.10
2018-03-25T12:31:47.013Z,25.20
2018-03-25T12:32:53.792Z,27.80
2018-03-25T12:34:00.543Z,25.60
2018-03-25T12:35:07.288Z,25.70
2018-03-25T12:36:14.092Z,26.40
2018-03-25T12:37:20.879Z,24.40
2018-03-25T12:38:27.872Z,24.70
2018-03-25T12:39:34.612Z,24.00
2018-03-25T12:40:41.363Z,21.40
2018-03-25T12:41:48.141Z,22.20
2018-03-25T12:42:54.984Z,23.90
2018-03-25T12:44:01.758Z,24.70
2018-03-25T12:45:08.516Z,21.30
2018-03-25T12:46:15.405Z,22.70
2018-03-25T12:47:22.283Z,25.40
2018-03-25T12:48:29.093Z,22.30
2018-03-25T12:49:35.837Z,21.80
2018-03-25T12:50:42.627Z,22.40
2018-03-25T12:51:49.411Z,21.50
2018-03-25T12:52:56.176Z,24.20
2018-03-25T12:54:02.953Z,22.80
2018-03-25T12:55:09.743Z,23.60
2018-03-25T12:56:16.524Z,20.60
2018-03-25T12:57:23.298Z,20.00
2018-03-25T12:58:30.151Z,22.50
2018-03-25T12:59:36.916Z,23.20
2018-03-25T13:00:43.678Z,21.30
2018-03-25T13:01:50.449Z,22.80
2018-03-25T13:02:57.189Z,22.50
2018-03-25T13:04:03.977Z,25.30
2018-03-25T13:05:10.726Z,23.70
2018-03-25T13:06:17.793Z,24.40
2018-03-25T13:07:24.587Z,23.60
2018-03-25T13:08:31.352Z,23.20
2018-03-25T13:09:38.149Z,24.40
2018-03-25T13:10:44.914Z,23.30
2018-03-25T13:11:51.733Z,24.80
2018-03-25T13:12:58.522Z,22.90
2018-03-25T13:14:05.314Z,22.80
2018-03-25T13:15:12.081Z,19.60
2018-03-25T13:16:18.937Z,23.10
2018-03-25T13:17:25.698Z,21.80
2018-03-25T13:18:32.456Z,23.50
2018-03-25T13:19:39.325Z,22.90
2018-03-25T13:20:46.078Z,22.80
2018-03-25T13:21:52.807Z,25.30
2018-03-25T13:22:59.576Z,24.60
2018-03-25T13:24:06.465Z,24.10
2018-03-25T13:25:13.229Z,20.40
2018-03-25T13:26:20.124Z,22.90
2018-03-25T13:27:26.912Z,21.30
2018-03-25T13:28:33.704Z,23.10
2018-03-25T13:29:40.511Z,20.90
2018-03-25T13:30:47.361Z,20.20
2018-03-25T13:31:54.354Z,20.30
2018-03-25T13:33:01.067Z,21.00
2018-03-25T13:34:07.667Z,23.30
2018-03-25T13:35:14.488Z,22.00
2018-03-25T13:36:21.330Z,20.10
2018-03-25T13:37:28.085Z,20.40
2018-03-25T13:38:34.828Z,20.20
2018-03-25T13:39:41.556Z,22.60
2018-03-25T13:40:48.336Z,23.10
2018-03-25T13:41:55.073Z,23.50
2018-03-25T13:43:01.930Z,22.40
2018-03-25T13:44:08.743Z,23.10
2018-03-25T13:45:15.542Z,24.50
2018-03-25T13:46:22.284Z,24.50
2018-03-25T13:47:29.140Z,24.30
2018-03-25T13:48:35.908Z,20.20
2018-03-25T13:49:42.684Z,19.90
2018-03-25T13:50:49.541Z,22.30
2018-03-25T13:51:56.291Z,22.00
2018-03-25T13:53:03.094Z,23.10
2018-03-25T13:54:09.973Z,19.60
2018-03-25T13:55:16.709Z,20.30
2018-03-25T13:56:23.440Z,20.60
2018-03-25T13:57:30.189Z,21.70
2018-03-25T13:58:37.034Z,22.50
2018-03-25T13:59:43.796Z,21.60
2018-03-25T14:00:50.560Z,19.20
2018-03-25T14:01:57.416Z,19.20
2018-03-25T14:03:04.159Z,19.40
2018-03-25T14:04:11.010Z,18.30
2018-03-25T14:05:17.800Z,20.10
2018-03-25T14:06:24.617Z,20.20
2018-03-25T14:07:31.380Z,19.00
2018-03-25T14:08:38.332Z,19.70
2018-03-25T14:09:45.138Z,21.30
2018-03-25T14:10:52.000Z,19.90
2018-03-25T14:11:58.744Z,19.90
2018-03-25T14:13:05.488Z,20.40
2018-03-25T14:14:12.424Z,20.80
2018-03-25T14:15:19.168Z,20.10
2018-03-25T14:16:25.935Z,21.40
2018-03-25T14:17:32.673Z,20.90
2018-03-25T14:18:39.437Z,19.80